Terminal Aerodrome Forecast
Issued by NWS

Home | Current Version | Previous Version | Text Only | Print | Product List | Glossary On
Versions: 1 2 3 4 5 6 7 8 9 10 11 12 13 14 15 16
000
FTUS45 KABQ 021125
TAFAEG
TAF
KAEG 021125Z 0212/0312 23006KT P6SM FEW025 BKN100
     FM021800 24007KT P6SM SCT070 SCT120
     FM022100 26007KT P6SM VCTS BKN060CB BKN100
     FM030300 34006KT P6SM VCSH SCT050 BKN100=

USA.gov is the U.S. government's official web portal to all federal, state and local government web resources and services.